sensor_id;sensor_type;location;lat;lon;timestamp;P1;durP1;ratioP1;P2;durP2;ratioP2
12986;SDS011;58897;51.960;5.582;2023-09-30T00:02:26;13.60;;;4.90;;
12986;SDS011;58897;51.960;5.582;2023-09-30T00:04:52;13.90;;;5.07;;
12986;SDS011;58897;51.960;5.582;2023-09-30T00:07:19;19.70;;;6.10;;
12986;SDS011;58897;51.960;5.582;2023-09-30T00:09:45;16.50;;;5.03;;
12986;SDS011;58897;51.960;5.582;2023-09-30T00:12:12;17.00;;;5.33;;
12986;SDS011;58897;51.960;5.582;2023-09-30T00:14:38;13.93;;;4.83;;
12986;SDS011;58897;51.960;5.582;2023-09-30T00:17:05;15.63;;;5.10;;
12986;SDS011;58897;51.960;5.582;2023-09-30T00:19:31;21.43;;;6.43;;
12986;SDS011;58897;51.960;5.582;2023-09-30T00:21:59;20.57;;;5.73;;
12986;SDS011;58897;51.960;5.582;2023-09-30T00:24:26;14.53;;;5.53;;
12986;SDS011;58897;51.960;5.582;2023-09-30T00:26:53;19.10;;;5.33;;
12986;SDS011;58897;51.960;5.582;2023-09-30T00:29:20;19.20;;;5.93;;
12986;SDS011;58897;51.960;5.582;2023-09-30T00:31:46;16.37;;;6.03;;
12986;SDS011;58897;51.960;5.582;2023-09-30T00:34:13;20.87;;;5.57;;
12986;SDS011;58897;51.960;5.582;2023-09-30T00:36:40;17.73;;;5.93;;
12986;SDS011;58897;51.960;5.582;2023-09-30T00:39:07;15.20;;;5.83;;
12986;SDS011;58897;51.960;5.582;2023-09-30T00:41:34;24.10;;;7.47;;
12986;SDS011;58897;51.960;5.582;2023-09-30T00:44:00;18.97;;;6.13;;
12986;SDS011;58897;51.960;5.582;2023-09-30T00:46:34;12.80;;;4.70;;
12986;SDS011;58897;51.960;5.582;2023-09-30T00:49:03;13.70;;;4.70;;
12986;SDS011;58897;51.960;5.582;2023-09-30T00:51:30;16.50;;;5.70;;
12986;SDS011;58897;51.960;5.582;2023-09-30T00:53:58;12.57;;;5.27;;
12986;SDS011;58897;51.960;5.582;2023-09-30T00:56:27;12.70;;;5.10;;
12986;SDS011;58897;51.960;5.582;2023-09-30T00:58:56;22.10;;;7.10;;
12986;SDS011;58897;51.960;5.582;2023-09-30T01:01:23;15.13;;;5.30;;
12986;SDS011;58897;51.960;5.582;2023-09-30T01:03:50;16.27;;;5.50;;
12986;SDS011;58897;51.960;5.582;2023-09-30T01:06:17;15.13;;;5.50;;
12986;SDS011;58897;51.960;5.582;2023-09-30T01:08:43;18.10;;;6.37;;
12986;SDS011;58897;51.960;5.582;2023-09-30T01:11:12;14.17;;;5.47;;
12986;SDS011;58897;51.960;5.582;2023-09-30T01:13:40;15.47;;;5.97;;
12986;SDS011;58897;51.960;5.582;2023-09-30T01:16:07;8.90;;;4.90;;
12986;SDS011;58897;51.960;5.582;2023-09-30T01:18:38;19.77;;;5.97;;
12986;SDS011;58897;51.960;5.582;2023-09-30T01:21:06;17.03;;;5.97;;
12986;SDS011;58897;51.960;5.582;2023-09-30T01:23:33;14.73;;;5.33;;
12986;SDS011;58897;51.960;5.582;2023-09-30T01:26:05;18.70;;;6.43;;
12986;SDS011;58897;51.960;5.582;2023-09-30T01:28:33;15.17;;;5.53;;
12986;SDS011;58897;51.960;5.582;2023-09-30T01:30:59;11.47;;;4.93;;
12986;SDS011;58897;51.960;5.582;2023-09-30T01:33:27;11.60;;;4.63;;
12986;SDS011;58897;51.960;5.582;2023-09-30T01:35:54;16.17;;;6.47;;
12986;SDS011;58897;51.960;5.582;2023-09-30T01:38:20;14.90;;;5.50;;
12986;SDS011;58897;51.960;5.582;2023-09-30T01:40:47;16.33;;;5.93;;
12986;SDS011;58897;51.960;5.582;2023-09-30T01:43:14;16.73;;;6.13;;
12986;SDS011;58897;51.960;5.582;2023-09-30T01:45:41;16.67;;;5.70;;
12986;SDS011;58897;51.960;5.582;2023-09-30T01:48:09;22.53;;;6.80;;
12986;SDS011;58897;51.960;5.582;2023-09-30T01:50:38;14.23;;;5.93;;
12986;SDS011;58897;51.960;5.582;2023-09-30T01:53:08;16.50;;;6.43;;
12986;SDS011;58897;51.960;5.582;2023-09-30T01:55:35;13.63;;;5.70;;
12986;SDS011;58897;51.960;5.582;2023-09-30T01:58:03;18.77;;;6.43;;
12986;SDS011;58897;51.960;5.582;2023-09-30T02:00:29;21.47;;;7.57;;
12986;SDS011;58897;51.960;5.582;2023-09-30T02:02:57;19.93;;;6.47;;
12986;SDS011;58897;51.960;5.582;2023-09-30T02:05:24;22.93;;;7.43;;
12986;SDS011;58897;51.960;5.582;2023-09-30T02:07:51;19.70;;;6.83;;
12986;SDS011;58897;51.960;5.582;2023-09-30T02:10:17;13.37;;;5.53;;
12986;SDS011;58897;51.960;5.582;2023-09-30T02:12:45;14.23;;;5.80;;
12986;SDS011;58897;51.960;5.582;2023-09-30T02:15:12;15.37;;;6.07;;
12986;SDS011;58897;51.960;5.582;2023-09-30T02:17:39;17.17;;;6.10;;
12986;SDS011;58897;51.960;5.582;2023-09-30T02:20:06;13.27;;;5.57;;
12986;SDS011;58897;51.960;5.582;2023-09-30T02:22:39;21.73;;;7.77;;
12986;SDS011;58897;51.960;5.582;2023-09-30T02:25:06;13.80;;;5.73;;
12986;SDS011;58897;51.960;5.582;2023-09-30T02:27:33;34.63;;;10.43;;
12986;SDS011;58897;51.960;5.582;2023-09-30T02:30:00;18.43;;;6.70;;
12986;SDS011;58897;51.960;5.582;2023-09-30T02:32:27;12.97;;;5.80;;
12986;SDS011;58897;51.960;5.582;2023-09-30T02:34:54;26.47;;;7.83;;
12986;SDS011;58897;51.960;5.582;2023-09-30T02:37:20;21.03;;;7.03;;
12986;SDS011;58897;51.960;5.582;2023-09-30T02:39:46;17.37;;;6.73;;
12986;SDS011;58897;51.960;5.582;2023-09-30T02:42:13;18.23;;;6.10;;
12986;SDS011;58897;51.960;5.582;2023-09-30T02:44:40;14.17;;;6.37;;
12986;SDS011;58897;51.960;5.582;2023-09-30T02:47:06;13.27;;;5.50;;
12986;SDS011;58897;51.960;5.582;2023-09-30T02:49:33;17.43;;;7.40;;
12986;SDS011;58897;51.960;5.582;2023-09-30T02:51:59;18.87;;;7.03;;
12986;SDS011;58897;51.960;5.582;2023-09-30T02:54:26;14.87;;;6.53;;
12986;SDS011;58897;51.960;5.582;2023-09-30T02:56:53;24.07;;;8.23;;
12986;SDS011;58897;51.960;5.582;2023-09-30T02:59:21;14.53;;;6.27;;
12986;SDS011;58897;51.960;5.582;2023-09-30T03:01:48;17.37;;;6.90;;
12986;SDS011;58897;51.960;5.582;2023-09-30T03:04:15;17.10;;;6.27;;
12986;SDS011;58897;51.960;5.582;2023-09-30T03:06:45;15.47;;;6.07;;
12986;SDS011;58897;51.960;5.582;2023-09-30T03:09:13;17.13;;;6.73;;
12986;SDS011;58897;51.960;5.582;2023-09-30T03:11:41;15.37;;;7.60;;
12986;SDS011;58897;51.960;5.582;2023-09-30T03:14:12;17.67;;;6.97;;
12986;SDS011;58897;51.960;5.582;2023-09-30T03:16:39;23.10;;;8.07;;
12986;SDS011;58897;51.960;5.582;2023-09-30T03:19:07;25.00;;;8.53;;
12986;SDS011;58897;51.960;5.582;2023-09-30T03:21:34;23.13;;;8.30;;
12986;SDS011;58897;51.960;5.582;2023-09-30T03:24:04;20.63;;;7.60;;
12986;SDS011;58897;51.960;5.582;2023-09-30T03:26:31;14.93;;;6.50;;
12986;SDS011;58897;51.960;5.582;2023-09-30T03:28:58;27.43;;;9.33;;
12986;SDS011;58897;51.960;5.582;2023-09-30T03:31:25;17.83;;;7.13;;
12986;SDS011;58897;51.960;5.582;2023-09-30T03:33:52;25.70;;;8.77;;
12986;SDS011;58897;51.960;5.582;2023-09-30T03:36:22;17.83;;;7.37;;
12986;SDS011;58897;51.960;5.582;2023-09-30T03:38:52;31.40;;;10.27;;
12986;SDS011;58897;51.960;5.582;2023-09-30T03:41:20;17.23;;;7.80;;
12986;SDS011;58897;51.960;5.582;2023-09-30T03:43:47;22.00;;;6.97;;
12986;SDS011;58897;51.960;5.582;2023-09-30T03:46:15;18.83;;;8.27;;
12986;SDS011;58897;51.960;5.582;2023-09-30T03:48:42;21.80;;;7.83;;
12986;SDS011;58897;51.960;5.582;2023-09-30T03:51:11;14.17;;;7.13;;
12986;SDS011;58897;51.960;5.582;2023-09-30T03:53:43;19.53;;;7.80;;
12986;SDS011;58897;51.960;5.582;2023-09-30T03:56:11;21.03;;;8.73;;
12986;SDS011;58897;51.960;5.582;2023-09-30T03:58:41;25.40;;;10.20;;
12986;SDS011;58897;51.960;5.582;2023-09-30T04:01:09;26.20;;;9.37;;
12986;SDS011;58897;51.960;5.582;2023-09-30T04:03:37;19.00;;;8.03;;
12986;SDS011;58897;51.960;5.582;2023-09-30T04:06:10;19.73;;;8.13;;
12986;SDS011;58897;51.960;5.582;2023-09-30T04:08:37;19.03;;;8.40;;
12986;SDS011;58897;51.960;5.582;2023-09-30T04:11:03;27.23;;;9.40;;
12986;SDS011;58897;51.960;5.582;2023-09-30T04:13:30;16.33;;;7.83;;
12986;SDS011;58897;51.960;5.582;2023-09-30T04:15:57;23.00;;;9.17;;
12986;SDS011;58897;51.960;5.582;2023-09-30T04:18:26;15.20;;;7.47;;
12986;SDS011;58897;51.960;5.582;2023-09-30T04:20:53;18.17;;;7.73;;
12986;SDS011;58897;51.960;5.582;2023-09-30T04:23:20;18.60;;;8.37;;
12986;SDS011;58897;51.960;5.582;2023-09-30T04:25:47;21.17;;;8.80;;
12986;SDS011;58897;51.960;5.582;2023-09-30T04:28:15;16.70;;;7.83;;
12986;SDS011;58897;51.960;5.582;2023-09-30T04:30:47;25.40;;;9.63;;
12986;SDS011;58897;51.960;5.582;2023-09-30T04:33:17;22.17;;;8.37;;
12986;SDS011;58897;51.960;5.582;2023-09-30T04:35:44;26.37;;;10.23;;
12986;SDS011;58897;51.960;5.582;2023-09-30T04:38:11;24.57;;;9.20;;
12986;SDS011;58897;51.960;5.582;2023-09-30T04:40:39;20.53;;;8.20;;
12986;SDS011;58897;51.960;5.582;2023-09-30T04:43:05;21.70;;;9.20;;
12986;SDS011;58897;51.960;5.582;2023-09-30T04:45:32;20.03;;;9.97;;
12986;SDS011;58897;51.960;5.582;2023-09-30T04:47:59;25.30;;;10.43;;
12986;SDS011;58897;51.960;5.582;2023-09-30T04:50:28;20.70;;;9.77;;
12986;SDS011;58897;51.960;5.582;2023-09-30T04:52:56;20.33;;;8.63;;
12986;SDS011;58897;51.960;5.582;2023-09-30T04:55:26;24.03;;;8.77;;
12986;SDS011;58897;51.960;5.582;2023-09-30T04:57:52;16.10;;;7.63;;
12986;SDS011;58897;51.960;5.582;2023-09-30T05:00:19;25.30;;;10.37;;
12986;SDS011;58897;51.960;5.582;2023-09-30T05:02:52;15.87;;;8.80;;
12986;SDS011;58897;51.960;5.582;2023-09-30T05:05:19;27.70;;;9.90;;
12986;SDS011;58897;51.960;5.582;2023-09-30T05:07:45;23.13;;;9.50;;
12986;SDS011;58897;51.960;5.582;2023-09-30T05:10:13;27.30;;;11.00;;
12986;SDS011;58897;51.960;5.582;2023-09-30T05:12:42;18.80;;;8.53;;
12986;SDS011;58897;51.960;5.582;2023-09-30T05:15:14;26.40;;;8.33;;
12986;SDS011;58897;51.960;5.582;2023-09-30T05:17:42;16.80;;;7.87;;
12986;SDS011;58897;51.960;5.582;2023-09-30T05:20:13;19.83;;;8.83;;
12986;SDS011;58897;51.960;5.582;2023-09-30T05:22:44;25.30;;;9.57;;
12986;SDS011;58897;51.960;5.582;2023-09-30T05:25:15;20.30;;;8.93;;
12986;SDS011;58897;51.960;5.582;2023-09-30T05:27:43;23.30;;;9.30;;
12986;SDS011;58897;51.960;5.582;2023-09-30T05:30:10;23.37;;;9.00;;
12986;SDS011;58897;51.960;5.582;2023-09-30T05:32:37;16.63;;;8.43;;
12986;SDS011;58897;51.960;5.582;2023-09-30T05:35:05;18.93;;;8.87;;
12986;SDS011;58897;51.960;5.582;2023-09-30T05:37:40;19.43;;;8.47;;
12986;SDS011;58897;51.960;5.582;2023-09-30T05:40:07;23.13;;;9.33;;
12986;SDS011;58897;51.960;5.582;2023-09-30T05:42:44;21.57;;;9.30;;
12986;SDS011;58897;51.960;5.582;2023-09-30T05:45:10;28.03;;;10.63;;
12986;SDS011;58897;51.960;5.582;2023-09-30T05:47:39;22.80;;;9.20;;
12986;SDS011;58897;51.960;5.582;2023-09-30T05:50:06;29.73;;;10.53;;
12986;SDS011;58897;51.960;5.582;2023-09-30T05:52:35;24.13;;;8.87;;
12986;SDS011;58897;51.960;5.582;2023-09-30T05:55:03;22.03;;;8.87;;
12986;SDS011;58897;51.960;5.582;2023-09-30T05:57:30;16.07;;;8.23;;
12986;SDS011;58897;51.960;5.582;2023-09-30T05:59:57;20.83;;;9.13;;
12986;SDS011;58897;51.960;5.582;2023-09-30T06:02:24;19.13;;;9.17;;
12986;SDS011;58897;51.960;5.582;2023-09-30T06:04:51;19.60;;;8.57;;
12986;SDS011;58897;51.960;5.582;2023-09-30T06:07:19;25.37;;;9.70;;
12986;SDS011;58897;51.960;5.582;2023-09-30T06:09:46;21.00;;;8.23;;
12986;SDS011;58897;51.960;5.582;2023-09-30T06:12:16;25.13;;;10.40;;
12986;SDS011;58897;51.960;5.582;2023-09-30T06:14:43;23.90;;;10.17;;
12986;SDS011;58897;51.960;5.582;2023-09-30T06:17:10;24.20;;;9.47;;
12986;SDS011;58897;51.960;5.582;2023-09-30T06:19:36;21.97;;;9.23;;
12986;SDS011;58897;51.960;5.582;2023-09-30T06:22:03;20.20;;;9.13;;
12986;SDS011;58897;51.960;5.582;2023-09-30T06:24:31;23.73;;;9.80;;
12986;SDS011;58897;51.960;5.582;2023-09-30T06:26:57;21.50;;;9.57;;
12986;SDS011;58897;51.960;5.582;2023-09-30T06:29:24;16.17;;;8.30;;
12986;SDS011;58897;51.960;5.582;2023-09-30T06:31:51;19.13;;;9.10;;
12986;SDS011;58897;51.960;5.582;2023-09-30T06:34:17;26.50;;;11.23;;
12986;SDS011;58897;51.960;5.582;2023-09-30T06:36:43;22.90;;;9.97;;
12986;SDS011;58897;51.960;5.582;2023-09-30T06:39:10;22.73;;;10.10;;
12986;SDS011;58897;51.960;5.582;2023-09-30T06:41:37;27.57;;;11.00;;
12986;SDS011;58897;51.960;5.582;2023-09-30T06:44:04;28.03;;;11.67;;
12986;SDS011;58897;51.960;5.582;2023-09-30T06:46:30;26.60;;;10.77;;
12986;SDS011;58897;51.960;5.582;2023-09-30T06:48:57;29.37;;;12.13;;
12986;SDS011;58897;51.960;5.582;2023-09-30T06:51:24;27.03;;;11.73;;
12986;SDS011;58897;51.960;5.582;2023-09-30T06:53:53;27.80;;;11.33;;
12986;SDS011;58897;51.960;5.582;2023-09-30T06:56:19;28.27;;;12.30;;
12986;SDS011;58897;51.960;5.582;2023-09-30T06:58:46;26.17;;;11.77;;
12986;SDS011;58897;51.960;5.582;2023-09-30T07:01:15;31.53;;;12.73;;
12986;SDS011;58897;51.960;5.582;2023-09-30T07:03:43;32.07;;;12.87;;
12986;SDS011;58897;51.960;5.582;2023-09-30T07:06:09;22.30;;;10.57;;
12986;SDS011;58897;51.960;5.582;2023-09-30T07:08:36;29.73;;;11.77;;
12986;SDS011;58897;51.960;5.582;2023-09-30T07:11:02;30.33;;;13.03;;
12986;SDS011;58897;51.960;5.582;2023-09-30T07:13:31;20.60;;;10.80;;
12986;SDS011;58897;51.960;5.582;2023-09-30T07:15:57;24.10;;;11.03;;
12986;SDS011;58897;51.960;5.582;2023-09-30T07:18:24;34.00;;;12.97;;
12986;SDS011;58897;51.960;5.582;2023-09-30T07:20:51;22.90;;;11.07;;
12986;SDS011;58897;51.960;5.582;2023-09-30T07:23:19;27.87;;;12.60;;
12986;SDS011;58897;51.960;5.582;2023-09-30T07:25:46;27.50;;;12.67;;
12986;SDS011;58897;51.960;5.582;2023-09-30T07:28:13;31.10;;;13.50;;
12986;SDS011;58897;51.960;5.582;2023-09-30T07:30:40;26.03;;;12.47;;
12986;SDS011;58897;51.960;5.582;2023-09-30T07:33:07;27.33;;;12.30;;
12986;SDS011;58897;51.960;5.582;2023-09-30T07:35:34;30.57;;;12.93;;
12986;SDS011;58897;51.960;5.582;2023-09-30T07:38:01;20.30;;;10.73;;
12986;SDS011;58897;51.960;5.582;2023-09-30T07:40:30;35.67;;;14.03;;
12986;SDS011;58897;51.960;5.582;2023-09-30T07:42:57;27.40;;;12.70;;
12986;SDS011;58897;51.960;5.582;2023-09-30T07:45:24;38.87;;;14.30;;
12986;SDS011;58897;51.960;5.582;2023-09-30T07:47:50;26.10;;;12.40;;
12986;SDS011;58897;51.960;5.582;2023-09-30T07:50:17;41.40;;;16.17;;
12986;SDS011;58897;51.960;5.582;2023-09-30T07:52:45;29.20;;;12.77;;
12986;SDS011;58897;51.960;5.582;2023-09-30T07:55:12;21.47;;;11.30;;
12986;SDS011;58897;51.960;5.582;2023-09-30T07:57:40;25.40;;;12.40;;
12986;SDS011;58897;51.960;5.582;2023-09-30T08:00:08;29.47;;;13.53;;
12986;SDS011;58897;51.960;5.582;2023-09-30T08:02:41;34.40;;;14.40;;
12986;SDS011;58897;51.960;5.582;2023-09-30T08:05:08;33.50;;;14.73;;
12986;SDS011;58897;51.960;5.582;2023-09-30T08:07:35;31.17;;;14.00;;
12986;SDS011;58897;51.960;5.582;2023-09-30T08:10:02;35.87;;;14.07;;
12986;SDS011;58897;51.960;5.582;2023-09-30T08:12:38;31.00;;;13.33;;
12986;SDS011;58897;51.960;5.582;2023-09-30T08:15:06;33.27;;;13.87;;
12986;SDS011;58897;51.960;5.582;2023-09-30T08:17:33;21.10;;;12.57;;
12986;SDS011;58897;51.960;5.582;2023-09-30T08:20:00;31.10;;;13.37;;
12986;SDS011;58897;51.960;5.582;2023-09-30T08:22:26;39.27;;;15.80;;
12986;SDS011;58897;51.960;5.582;2023-09-30T08:24:54;33.40;;;12.53;;
12986;SDS011;58897;51.960;5.582;2023-09-30T08:27:21;30.37;;;13.50;;
12986;SDS011;58897;51.960;5.582;2023-09-30T08:29:50;30.17;;;13.33;;
12986;SDS011;58897;51.960;5.582;2023-09-30T08:32:17;27.93;;;12.67;;
12986;SDS011;58897;51.960;5.582;2023-09-30T08:34:43;21.43;;;11.60;;
12986;SDS011;58897;51.960;5.582;2023-09-30T08:37:10;26.27;;;12.63;;
12986;SDS011;58897;51.960;5.582;2023-09-30T08:39:39;29.00;;;12.43;;
12986;SDS011;58897;51.960;5.582;2023-09-30T08:42:09;23.03;;;11.37;;
12986;SDS011;58897;51.960;5.582;2023-09-30T08:44:37;25.47;;;11.67;;
12986;SDS011;58897;51.960;5.582;2023-09-30T08:47:05;32.27;;;11.77;;
12986;SDS011;58897;51.960;5.582;2023-09-30T08:49:34;21.43;;;10.83;;
12986;SDS011;58897;51.960;5.582;2023-09-30T08:52:05;20.20;;;10.20;;
12986;SDS011;58897;51.960;5.582;2023-09-30T08:54:32;22.20;;;10.43;;
12986;SDS011;58897;51.960;5.582;2023-09-30T08:56:59;20.33;;;10.10;;
12986;SDS011;58897;51.960;5.582;2023-09-30T08:59:26;24.63;;;10.97;;
12986;SDS011;58897;51.960;5.582;2023-09-30T09:01:53;19.77;;;9.87;;
12986;SDS011;58897;51.960;5.582;2023-09-30T09:04:20;22.80;;;10.57;;
12986;SDS011;58897;51.960;5.582;2023-09-30T09:06:49;21.37;;;10.47;;
12986;SDS011;58897;51.960;5.582;2023-09-30T09:09:18;22.50;;;10.10;;
12986;SDS011;58897;51.960;5.582;2023-09-30T09:11:45;16.00;;;8.93;;
12986;SDS011;58897;51.960;5.582;2023-09-30T09:14:13;16.87;;;9.13;;
12986;SDS011;58897;51.960;5.582;2023-09-30T09:16:50;18.47;;;10.40;;
12986;SDS011;58897;51.960;5.582;2023-09-30T09:19:19;21.53;;;10.40;;
12986;SDS011;58897;51.960;5.582;2023-09-30T09:21:58;20.60;;;9.37;;
12986;SDS011;58897;51.960;5.582;2023-09-30T09:24:30;25.20;;;9.63;;
12986;SDS011;58897;51.960;5.582;2023-09-30T09:27:04;18.67;;;8.87;;
12986;SDS011;58897;51.960;5.582;2023-09-30T09:29:35;21.30;;;9.73;;
12986;SDS011;58897;51.960;5.582;2023-09-30T09:32:12;16.50;;;8.63;;
12986;SDS011;58897;51.960;5.582;2023-09-30T09:34:40;20.63;;;9.27;;
12986;SDS011;58897;51.960;5.582;2023-09-30T09:37:15;20.20;;;9.33;;
12986;SDS011;58897;51.960;5.582;2023-09-30T09:39:53;17.70;;;7.93;;
12986;SDS011;58897;51.960;5.582;2023-09-30T09:42:30;21.87;;;8.93;;
12986;SDS011;58897;51.960;5.582;2023-09-30T09:45:03;14.87;;;8.00;;
12986;SDS011;58897;51.960;5.582;2023-09-30T09:47:32;16.83;;;8.17;;
12986;SDS011;58897;51.960;5.582;2023-09-30T09:50:01;21.87;;;8.17;;
12986;SDS011;58897;51.960;5.582;2023-09-30T09:52:29;20.57;;;8.80;;
12986;SDS011;58897;51.960;5.582;2023-09-30T09:54:57;20.17;;;7.70;;
12986;SDS011;58897;51.960;5.582;2023-09-30T09:57:25;19.23;;;8.13;;
12986;SDS011;58897;51.960;5.582;2023-09-30T09:59:53;13.23;;;6.97;;
12986;SDS011;58897;51.960;5.582;2023-09-30T10:02:25;16.20;;;7.57;;
12986;SDS011;58897;51.960;5.582;2023-09-30T10:04:54;12.33;;;6.43;;
12986;SDS011;58897;51.960;5.582;2023-09-30T10:07:25;16.47;;;7.80;;
12986;SDS011;58897;51.960;5.582;2023-09-30T10:09:54;18.17;;;7.53;;
12986;SDS011;58897;51.960;5.582;2023-09-30T10:12:24;17.87;;;7.10;;
12986;SDS011;58897;51.960;5.582;2023-09-30T10:14:52;17.73;;;7.57;;
12986;SDS011;58897;51.960;5.582;2023-09-30T10:17:19;16.93;;;7.17;;
12986;SDS011;58897;51.960;5.582;2023-09-30T10:22:42;18.67;;;7.80;;
12986;SDS011;58897;51.960;5.582;2023-09-30T10:28:03;14.23;;;6.90;;
12986;SDS011;58897;51.960;5.582;2023-09-30T10:31:20;15.50;;;6.77;;
12986;SDS011;58897;51.960;5.582;2023-09-30T10:39:10;14.73;;;7.03;;
12986;SDS011;58897;51.960;5.582;2023-09-30T10:46:53;26.17;;;8.70;;
12986;SDS011;58897;51.960;5.582;2023-09-30T10:51:54;26.07;;;8.57;;
12986;SDS011;58897;51.960;5.582;2023-09-30T10:54:29;18.00;;;6.90;;
12986;SDS011;58897;51.960;5.582;2023-09-30T10:56:58;18.13;;;6.67;;
12986;SDS011;58897;51.960;5.582;2023-09-30T10:59:27;25.70;;;8.20;;
12986;SDS011;58897;51.960;5.582;2023-09-30T11:01:56;17.33;;;6.17;;
12986;SDS011;58897;51.960;5.582;2023-09-30T11:04:23;15.33;;;5.70;;
12986;SDS011;58897;51.960;5.582;2023-09-30T11:06:50;12.17;;;4.80;;
12986;SDS011;58897;51.960;5.582;2023-09-30T11:09:19;15.97;;;5.90;;
12986;SDS011;58897;51.960;5.582;2023-09-30T11:14:17;12.97;;;4.77;;
12986;SDS011;58897;51.960;5.582;2023-09-30T11:16:59;15.37;;;5.17;;
12986;SDS011;58897;51.960;5.582;2023-09-30T11:19:34;21.13;;;6.93;;
12986;SDS011;58897;51.960;5.582;2023-09-30T11:22:01;17.27;;;5.73;;
12986;SDS011;58897;51.960;5.582;2023-09-30T11:24:28;19.57;;;6.87;;
12986;SDS011;58897;51.960;5.582;2023-09-30T11:26:55;13.80;;;4.67;;
12986;SDS011;58897;51.960;5.582;2023-09-30T11:29:22;13.50;;;4.50;;
12986;SDS011;58897;51.960;5.582;2023-09-30T11:31:49;9.13;;;3.83;;
12986;SDS011;58897;51.960;5.582;2023-09-30T11:34:17;11.77;;;3.73;;
12986;SDS011;58897;51.960;5.582;2023-09-30T11:36:49;16.83;;;4.60;;
12986;SDS011;58897;51.960;5.582;2023-09-30T11:39:26;12.53;;;3.97;;
12986;SDS011;58897;51.960;5.582;2023-09-30T11:41:54;15.03;;;3.47;;
12986;SDS011;58897;51.960;5.582;2023-09-30T11:44:24;10.27;;;3.57;;
12986;SDS011;58897;51.960;5.582;2023-09-30T11:47:00;7.97;;;3.33;;
12986;SDS011;58897;51.960;5.582;2023-09-30T11:49:31;14.20;;;4.53;;
12986;SDS011;58897;51.960;5.582;2023-09-30T11:52:03;8.60;;;3.20;;
12986;SDS011;58897;51.960;5.582;2023-09-30T11:54:31;12.60;;;4.00;;
12986;SDS011;58897;51.960;5.582;2023-09-30T11:57:00;13.30;;;4.50;;
12986;SDS011;58897;51.960;5.582;2023-09-30T11:59:28;11.93;;;4.17;;
12986;SDS011;58897;51.960;5.582;2023-09-30T12:01:55;11.13;;;3.50;;
12986;SDS011;58897;51.960;5.582;2023-09-30T12:04:39;11.10;;;4.13;;
12986;SDS011;58897;51.960;5.582;2023-09-30T12:07:07;12.50;;;4.13;;
12986;SDS011;58897;51.960;5.582;2023-09-30T12:09:34;15.43;;;4.93;;
12986;SDS011;58897;51.960;5.582;2023-09-30T12:12:03;12.87;;;4.13;;
12986;SDS011;58897;51.960;5.582;2023-09-30T12:14:30;12.40;;;3.87;;
12986;SDS011;58897;51.960;5.582;2023-09-30T12:16:57;10.40;;;3.17;;
12986;SDS011;58897;51.960;5.582;2023-09-30T12:19:24;6.87;;;2.37;;
12986;SDS011;58897;51.960;5.582;2023-09-30T12:21:52;17.47;;;4.87;;
12986;SDS011;58897;51.960;5.582;2023-09-30T12:24:19;14.17;;;4.70;;
12986;SDS011;58897;51.960;5.582;2023-09-30T12:26:48;14.03;;;3.90;;
12986;SDS011;58897;51.960;5.582;2023-09-30T12:29:19;16.00;;;4.23;;
12986;SDS011;58897;51.960;5.582;2023-09-30T12:31:49;14.30;;;4.47;;
12986;SDS011;58897;51.960;5.582;2023-09-30T12:34:20;13.10;;;4.37;;
12986;SDS011;58897;51.960;5.582;2023-09-30T12:36:46;12.57;;;3.53;;
12986;SDS011;58897;51.960;5.582;2023-09-30T12:39:14;11.40;;;3.90;;
12986;SDS011;58897;51.960;5.582;2023-09-30T12:41:43;18.50;;;5.57;;
12986;SDS011;58897;51.960;5.582;2023-09-30T12:44:12;15.07;;;4.77;;
12986;SDS011;58897;51.960;5.582;2023-09-30T12:46:39;16.00;;;4.93;;
12986;SDS011;58897;51.960;5.582;2023-09-30T12:49:07;12.87;;;3.93;;
12986;SDS011;58897;51.960;5.582;2023-09-30T12:51:34;19.80;;;6.10;;
12986;SDS011;58897;51.960;5.582;2023-09-30T12:54:02;12.37;;;4.30;;
12986;SDS011;58897;51.960;5.582;2023-09-30T12:56:28;15.83;;;4.70;;
12986;SDS011;58897;51.960;5.582;2023-09-30T12:58:56;22.70;;;7.37;;
12986;SDS011;58897;51.960;5.582;2023-09-30T13:01:23;15.47;;;4.47;;
12986;SDS011;58897;51.960;5.582;2023-09-30T13:03:50;10.87;;;3.80;;
12986;SDS011;58897;51.960;5.582;2023-09-30T13:06:18;16.50;;;5.23;;
12986;SDS011;58897;51.960;5.582;2023-09-30T13:08:45;18.50;;;5.67;;
12986;SDS011;58897;51.960;5.582;2023-09-30T13:11:13;14.53;;;4.63;;
12986;SDS011;58897;51.960;5.582;2023-09-30T13:13:40;12.40;;;4.37;;
12986;SDS011;58897;51.960;5.582;2023-09-30T13:16:09;16.07;;;5.03;;
12986;SDS011;58897;51.960;5.582;2023-09-30T13:18:38;18.00;;;5.50;;
12986;SDS011;58897;51.960;5.582;2023-09-30T13:21:04;17.77;;;5.37;;
12986;SDS011;58897;51.960;5.582;2023-09-30T13:23:32;20.60;;;5.97;;
12986;SDS011;58897;51.960;5.582;2023-09-30T13:25:59;16.57;;;5.23;;
12986;SDS011;58897;51.960;5.582;2023-09-30T13:28:26;17.17;;;4.63;;
12986;SDS011;58897;51.960;5.582;2023-09-30T13:30:57;16.80;;;4.67;;
12986;SDS011;58897;51.960;5.582;2023-09-30T13:33:23;17.87;;;5.53;;
12986;SDS011;58897;51.960;5.582;2023-09-30T13:35:50;8.70;;;3.53;;
12986;SDS011;58897;51.960;5.582;2023-09-30T13:38:16;15.27;;;4.70;;
12986;SDS011;58897;51.960;5.582;2023-09-30T13:40:43;13.37;;;4.60;;
12986;SDS011;58897;51.960;5.582;2023-09-30T13:43:10;9.10;;;3.43;;
12986;SDS011;58897;51.960;5.582;2023-09-30T13:45:37;16.13;;;5.07;;
12986;SDS011;58897;51.960;5.582;2023-09-30T13:48:04;15.50;;;5.50;;
12986;SDS011;58897;51.960;5.582;2023-09-30T13:50:31;13.73;;;3.83;;
12986;SDS011;58897;51.960;5.582;2023-09-30T13:52:58;11.03;;;3.47;;
12986;SDS011;58897;51.960;5.582;2023-09-30T13:55:27;15.80;;;4.80;;
12986;SDS011;58897;51.960;5.582;2023-09-30T13:57:53;14.63;;;4.37;;
12986;SDS011;58897;51.960;5.582;2023-09-30T14:00:20;11.27;;;4.43;;
12986;SDS011;58897;51.960;5.582;2023-09-30T14:02:47;14.97;;;5.00;;
12986;SDS011;58897;51.960;5.582;2023-09-30T14:05:15;15.03;;;4.97;;
12986;SDS011;58897;51.960;5.582;2023-09-30T14:07:42;14.40;;;4.90;;
12986;SDS011;58897;51.960;5.582;2023-09-30T14:10:09;16.70;;;5.60;;
12986;SDS011;58897;51.960;5.582;2023-09-30T14:12:39;11.27;;;4.47;;
12986;SDS011;58897;51.960;5.582;2023-09-30T14:15:07;11.27;;;3.83;;
12986;SDS011;58897;51.960;5.582;2023-09-30T14:17:34;14.40;;;4.27;;
12986;SDS011;58897;51.960;5.582;2023-09-30T14:20:04;16.97;;;4.77;;
12986;SDS011;58897;51.960;5.582;2023-09-30T14:22:32;18.23;;;6.00;;
12986;SDS011;58897;51.960;5.582;2023-09-30T14:25:00;8.83;;;3.73;;
12986;SDS011;58897;51.960;5.582;2023-09-30T14:27:26;13.87;;;4.97;;
12986;SDS011;58897;51.960;5.582;2023-09-30T14:29:53;15.53;;;4.87;;
12986;SDS011;58897;51.960;5.582;2023-09-30T14:32:20;12.50;;;4.90;;
12986;SDS011;58897;51.960;5.582;2023-09-30T14:34:46;15.53;;;5.40;;
12986;SDS011;58897;51.960;5.582;2023-09-30T14:37:13;15.07;;;5.10;;
12986;SDS011;58897;51.960;5.582;2023-09-30T14:39:40;14.80;;;4.73;;
12986;SDS011;58897;51.960;5.582;2023-09-30T14:42:06;15.47;;;5.50;;
12986;SDS011;58897;51.960;5.582;2023-09-30T14:44:33;15.70;;;5.63;;
12986;SDS011;58897;51.960;5.582;2023-09-30T14:46:59;11.30;;;4.67;;
12986;SDS011;58897;51.960;5.582;2023-09-30T14:49:26;15.63;;;5.30;;
12986;SDS011;58897;51.960;5.582;2023-09-30T14:51:53;19.23;;;6.03;;
12986;SDS011;58897;51.960;5.582;2023-09-30T14:54:20;13.57;;;4.50;;
12986;SDS011;58897;51.960;5.582;2023-09-30T14:56:47;19.93;;;5.73;;
12986;SDS011;58897;51.960;5.582;2023-09-30T14:59:14;20.47;;;5.97;;